sensor_id;sensor_type;location;lat;lon;timestamp;P1;durP1;ratioP1;P2;durP2;ratioP2
19251;SDS011;9760;50.944;5.304;2023-03-30T00:01:13;4.30;;;1.70;;
19251;SDS011;9760;50.944;5.304;2023-03-30T00:03:41;7.17;;;1.97;;
19251;SDS011;9760;50.944;5.304;2023-03-30T00:06:08;5.40;;;1.57;;
19251;SDS011;9760;50.944;5.304;2023-03-30T00:08:36;6.27;;;1.73;;
19251;SDS011;9760;50.944;5.304;2023-03-30T00:11:03;6.43;;;1.80;;
19251;SDS011;9760;50.944;5.304;2023-03-30T00:13:30;5.60;;;1.77;;
19251;SDS011;9760;50.944;5.304;2023-03-30T00:15:57;10.07;;;1.80;;
19251;SDS011;9760;50.944;5.304;2023-03-30T00:18:23;6.97;;;2.10;;
19251;SDS011;9760;50.944;5.304;2023-03-30T00:20:49;14.50;;;2.00;;
19251;SDS011;9760;50.944;5.304;2023-03-30T00:23:15;11.37;;;2.03;;
19251;SDS011;9760;50.944;5.304;2023-03-30T00:25:42;6.67;;;1.80;;
19251;SDS011;9760;50.944;5.304;2023-03-30T00:28:08;6.53;;;1.70;;
19251;SDS011;9760;50.944;5.304;2023-03-30T00:30:34;13.57;;;1.77;;
19251;SDS011;9760;50.944;5.304;2023-03-30T00:33:01;9.77;;;1.73;;
19251;SDS011;9760;50.944;5.304;2023-03-30T00:35:27;10.23;;;1.90;;
19251;SDS011;9760;50.944;5.304;2023-03-30T00:37:54;4.23;;;2.07;;
19251;SDS011;9760;50.944;5.304;2023-03-30T00:40:27;6.43;;;1.73;;
19251;SDS011;9760;50.944;5.304;2023-03-30T00:43:01;11.50;;;1.57;;
19251;SDS011;9760;50.944;5.304;2023-03-30T00:45:32;4.53;;;1.60;;
19251;SDS011;9760;50.944;5.304;2023-03-30T00:51:04;10.43;;;1.93;;
19251;SDS011;9760;50.944;5.304;2023-03-30T00:53:34;4.87;;;1.77;;
19251;SDS011;9760;50.944;5.304;2023-03-30T00:56:03;8.27;;;2.33;;
19251;SDS011;9760;50.944;5.304;2023-03-30T00:58:31;10.07;;;1.93;;
19251;SDS011;9760;50.944;5.304;2023-03-30T01:01:00;4.63;;;1.73;;
19251;SDS011;9760;50.944;5.304;2023-03-30T01:03:32;6.60;;;1.73;;
19251;SDS011;9760;50.944;5.304;2023-03-30T01:06:02;10.60;;;1.60;;
19251;SDS011;9760;50.944;5.304;2023-03-30T01:08:31;8.10;;;1.70;;
19251;SDS011;9760;50.944;5.304;2023-03-30T01:10:58;9.43;;;1.53;;
19251;SDS011;9760;50.944;5.304;2023-03-30T01:13:29;10.43;;;2.07;;
19251;SDS011;9760;50.944;5.304;2023-03-30T01:16:08;5.03;;;1.60;;
19251;SDS011;9760;50.944;5.304;2023-03-30T01:21:55;8.67;;;1.70;;
19251;SDS011;9760;50.944;5.304;2023-03-30T01:46:47;5.50;;;1.50;;
19251;SDS011;9760;50.944;5.304;2023-03-30T01:49:28;6.43;;;1.57;;
19251;SDS011;9760;50.944;5.304;2023-03-30T01:52:14;7.70;;;2.03;;
19251;SDS011;9760;50.944;5.304;2023-03-30T02:00:18;8.83;;;1.50;;
19251;SDS011;9760;50.944;5.304;2023-03-30T02:02:47;6.50;;;1.40;;
19251;SDS011;9760;50.944;5.304;2023-03-30T02:05:19;8.63;;;1.80;;
19251;SDS011;9760;50.944;5.304;2023-03-30T02:07:51;5.57;;;1.60;;
19251;SDS011;9760;50.944;5.304;2023-03-30T02:10:20;7.73;;;1.47;;
19251;SDS011;9760;50.944;5.304;2023-03-30T02:12:50;5.03;;;1.30;;
19251;SDS011;9760;50.944;5.304;2023-03-30T02:15:16;7.07;;;1.57;;
19251;SDS011;9760;50.944;5.304;2023-03-30T02:17:43;3.57;;;1.30;;
19251;SDS011;9760;50.944;5.304;2023-03-30T02:20:11;10.80;;;2.07;;
19251;SDS011;9760;50.944;5.304;2023-03-30T02:22:40;7.43;;;1.70;;
19251;SDS011;9760;50.944;5.304;2023-03-30T02:25:07;3.40;;;1.33;;
19251;SDS011;9760;50.944;5.304;2023-03-30T02:27:33;9.83;;;1.60;;
19251;SDS011;9760;50.944;5.304;2023-03-30T02:30:00;7.63;;;1.73;;
19251;SDS011;9760;50.944;5.304;2023-03-30T02:32:27;8.63;;;1.53;;
19251;SDS011;9760;50.944;5.304;2023-03-30T02:35:10;11.27;;;1.83;;
19251;SDS011;9760;50.944;5.304;2023-03-30T02:44:14;7.33;;;1.83;;
19251;SDS011;9760;50.944;5.304;2023-03-30T02:55:36;9.07;;;1.60;;
19251;SDS011;9760;50.944;5.304;2023-03-30T02:57:57;6.37;;;1.50;;
19251;SDS011;9760;50.944;5.304;2023-03-30T03:03:00;9.93;;;1.80;;
19251;SDS011;9760;50.944;5.304;2023-03-30T03:05:32;8.80;;;1.70;;
19251;SDS011;9760;50.944;5.304;2023-03-30T03:07:59;7.10;;;1.83;;
19251;SDS011;9760;50.944;5.304;2023-03-30T03:10:25;5.83;;;1.73;;
19251;SDS011;9760;50.944;5.304;2023-03-30T03:12:51;4.13;;;1.50;;
19251;SDS011;9760;50.944;5.304;2023-03-30T03:15:17;7.50;;;1.60;;
19251;SDS011;9760;50.944;5.304;2023-03-30T03:17:43;5.53;;;1.47;;
19251;SDS011;9760;50.944;5.304;2023-03-30T03:20:09;5.43;;;1.70;;
19251;SDS011;9760;50.944;5.304;2023-03-30T03:22:35;9.37;;;1.80;;
19251;SDS011;9760;50.944;5.304;2023-03-30T03:25:01;6.67;;;1.80;;
19251;SDS011;9760;50.944;5.304;2023-03-30T03:27:28;14.73;;;1.97;;
19251;SDS011;9760;50.944;5.304;2023-03-30T03:29:53;6.07;;;1.73;;
19251;SDS011;9760;50.944;5.304;2023-03-30T03:32:19;7.23;;;1.97;;
19251;SDS011;9760;50.944;5.304;2023-03-30T03:34:44;6.90;;;1.83;;
19251;SDS011;9760;50.944;5.304;2023-03-30T03:37:10;10.67;;;1.87;;
19251;SDS011;9760;50.944;5.304;2023-03-30T03:39:37;12.20;;;2.10;;
19251;SDS011;9760;50.944;5.304;2023-03-30T03:42:03;7.43;;;1.80;;
19251;SDS011;9760;50.944;5.304;2023-03-30T03:44:29;9.10;;;2.03;;
19251;SDS011;9760;50.944;5.304;2023-03-30T03:46:55;5.87;;;1.83;;
19251;SDS011;9760;50.944;5.304;2023-03-30T03:49:20;12.30;;;2.10;;
19251;SDS011;9760;50.944;5.304;2023-03-30T03:51:46;7.23;;;1.93;;
19251;SDS011;9760;50.944;5.304;2023-03-30T03:54:12;6.90;;;1.80;;
19251;SDS011;9760;50.944;5.304;2023-03-30T03:56:37;11.40;;;2.13;;
19251;SDS011;9760;50.944;5.304;2023-03-30T03:59:03;6.80;;;1.70;;
19251;SDS011;9760;50.944;5.304;2023-03-30T04:01:29;7.20;;;1.77;;
19251;SDS011;9760;50.944;5.304;2023-03-30T04:03:55;8.23;;;2.00;;
19251;SDS011;9760;50.944;5.304;2023-03-30T04:06:21;8.57;;;1.50;;
19251;SDS011;9760;50.944;5.304;2023-03-30T04:08:47;7.57;;;1.67;;
19251;SDS011;9760;50.944;5.304;2023-03-30T04:11:12;7.37;;;1.80;;
19251;SDS011;9760;50.944;5.304;2023-03-30T04:13:38;4.40;;;1.40;;
19251;SDS011;9760;50.944;5.304;2023-03-30T04:16:05;2.03;;;1.10;;
19251;SDS011;9760;50.944;5.304;2023-03-30T04:18:32;6.80;;;1.30;;
19251;SDS011;9760;50.944;5.304;2023-03-30T04:21:02;4.87;;;1.20;;
19251;SDS011;9760;50.944;5.304;2023-03-30T04:23:31;6.50;;;1.23;;
19251;SDS011;9760;50.944;5.304;2023-03-30T04:25:58;6.60;;;1.43;;
19251;SDS011;9760;50.944;5.304;2023-03-30T04:28:26;5.40;;;1.33;;
19251;SDS011;9760;50.944;5.304;2023-03-30T04:30:57;2.93;;;1.27;;
19251;SDS011;9760;50.944;5.304;2023-03-30T04:33:24;5.73;;;1.07;;
19251;SDS011;9760;50.944;5.304;2023-03-30T04:35:50;7.63;;;1.57;;
19251;SDS011;9760;50.944;5.304;2023-03-30T04:38:28;3.80;;;1.00;;
19251;SDS011;9760;50.944;5.304;2023-03-30T04:40:54;3.53;;;1.10;;
19251;SDS011;9760;50.944;5.304;2023-03-30T04:43:21;2.40;;;1.10;;
19251;SDS011;9760;50.944;5.304;2023-03-30T04:45:48;6.73;;;1.43;;
19251;SDS011;9760;50.944;5.304;2023-03-30T04:48:18;6.00;;;1.53;;
19251;SDS011;9760;50.944;5.304;2023-03-30T04:50:46;6.27;;;1.43;;
19251;SDS011;9760;50.944;5.304;2023-03-30T04:53:13;4.40;;;1.30;;
19251;SDS011;9760;50.944;5.304;2023-03-30T04:55:40;8.33;;;1.10;;
19251;SDS011;9760;50.944;5.304;2023-03-30T04:58:06;8.17;;;1.77;;
19251;SDS011;9760;50.944;5.304;2023-03-30T05:00:35;7.77;;;1.67;;
19251;SDS011;9760;50.944;5.304;2023-03-30T05:03:02;6.57;;;1.43;;
19251;SDS011;9760;50.944;5.304;2023-03-30T05:05:28;4.37;;;1.57;;
19251;SDS011;9760;50.944;5.304;2023-03-30T05:07:54;10.90;;;1.70;;
19251;SDS011;9760;50.944;5.304;2023-03-30T05:10:20;5.27;;;1.50;;
19251;SDS011;9760;50.944;5.304;2023-03-30T05:12:45;7.97;;;1.60;;
19251;SDS011;9760;50.944;5.304;2023-03-30T05:15:11;9.87;;;1.80;;
19251;SDS011;9760;50.944;5.304;2023-03-30T05:17:37;4.13;;;1.40;;
19251;SDS011;9760;50.944;5.304;2023-03-30T05:20:04;8.07;;;2.10;;
19251;SDS011;9760;50.944;5.304;2023-03-30T05:22:34;3.77;;;1.73;;
19251;SDS011;9760;50.944;5.304;2023-03-30T05:25:00;7.77;;;1.90;;
19251;SDS011;9760;50.944;5.304;2023-03-30T05:27:28;8.03;;;1.50;;
19251;SDS011;9760;50.944;5.304;2023-03-30T05:29:54;6.60;;;1.90;;
19251;SDS011;9760;50.944;5.304;2023-03-30T05:32:20;3.10;;;1.50;;
19251;SDS011;9760;50.944;5.304;2023-03-30T05:34:46;8.60;;;1.60;;
19251;SDS011;9760;50.944;5.304;2023-03-30T05:37:12;6.33;;;1.90;;
19251;SDS011;9760;50.944;5.304;2023-03-30T05:39:38;3.40;;;1.30;;
19251;SDS011;9760;50.944;5.304;2023-03-30T05:42:05;2.57;;;1.47;;
19251;SDS011;9760;50.944;5.304;2023-03-30T05:44:31;11.50;;;2.17;;
19251;SDS011;9760;50.944;5.304;2023-03-30T05:46:57;11.03;;;2.83;;
19251;SDS011;9760;50.944;5.304;2023-03-30T05:49:22;9.70;;;2.03;;
19251;SDS011;9760;50.944;5.304;2023-03-30T05:51:48;10.77;;;2.37;;
19251;SDS011;9760;50.944;5.304;2023-03-30T05:54:14;7.47;;;1.33;;
19251;SDS011;9760;50.944;5.304;2023-03-30T05:56:39;9.43;;;1.93;;
19251;SDS011;9760;50.944;5.304;2023-03-30T05:59:06;6.20;;;1.80;;
19251;SDS011;9760;50.944;5.304;2023-03-30T06:01:33;5.97;;;1.30;;
19251;SDS011;9760;50.944;5.304;2023-03-30T06:03:59;5.57;;;1.23;;
19251;SDS011;9760;50.944;5.304;2023-03-30T06:06:24;6.23;;;1.83;;
19251;SDS011;9760;50.944;5.304;2023-03-30T06:08:51;4.43;;;1.47;;
19251;SDS011;9760;50.944;5.304;2023-03-30T06:11:17;6.47;;;1.57;;
19251;SDS011;9760;50.944;5.304;2023-03-30T06:13:43;9.53;;;2.23;;
19251;SDS011;9760;50.944;5.304;2023-03-30T06:16:09;8.70;;;1.53;;
19251;SDS011;9760;50.944;5.304;2023-03-30T06:18:35;8.97;;;1.90;;
19251;SDS011;9760;50.944;5.304;2023-03-30T06:21:00;8.43;;;1.93;;
19251;SDS011;9760;50.944;5.304;2023-03-30T06:23:26;6.93;;;1.93;;
19251;SDS011;9760;50.944;5.304;2023-03-30T06:25:52;15.23;;;2.17;;
19251;SDS011;9760;50.944;5.304;2023-03-30T06:28:20;9.53;;;2.10;;
19251;SDS011;9760;50.944;5.304;2023-03-30T06:30:46;9.57;;;1.90;;
19251;SDS011;9760;50.944;5.304;2023-03-30T06:33:16;10.30;;;2.13;;
19251;SDS011;9760;50.944;5.304;2023-03-30T06:35:46;11.70;;;2.80;;
19251;SDS011;9760;50.944;5.304;2023-03-30T06:38:13;10.13;;;2.20;;
19251;SDS011;9760;50.944;5.304;2023-03-30T06:40:40;13.70;;;2.10;;
19251;SDS011;9760;50.944;5.304;2023-03-30T06:43:06;10.40;;;1.93;;
19251;SDS011;9760;50.944;5.304;2023-03-30T06:45:32;12.17;;;2.00;;
19251;SDS011;9760;50.944;5.304;2023-03-30T06:47:58;9.17;;;1.77;;
19251;SDS011;9760;50.944;5.304;2023-03-30T06:50:24;10.07;;;1.80;;
19251;SDS011;9760;50.944;5.304;2023-03-30T06:52:49;12.87;;;2.47;;
19251;SDS011;9760;50.944;5.304;2023-03-30T06:55:15;9.63;;;2.00;;
19251;SDS011;9760;50.944;5.304;2023-03-30T06:57:41;11.30;;;2.47;;
19251;SDS011;9760;50.944;5.304;2023-03-30T07:00:07;12.13;;;1.97;;
19251;SDS011;9760;50.944;5.304;2023-03-30T07:02:38;12.63;;;2.40;;
19251;SDS011;9760;50.944;5.304;2023-03-30T07:05:04;11.87;;;2.10;;
19251;SDS011;9760;50.944;5.304;2023-03-30T07:07:31;11.13;;;1.87;;
19251;SDS011;9760;50.944;5.304;2023-03-30T07:09:57;15.90;;;2.50;;
19251;SDS011;9760;50.944;5.304;2023-03-30T07:12:23;12.77;;;1.97;;
19251;SDS011;9760;50.944;5.304;2023-03-30T07:14:48;13.33;;;1.97;;
19251;SDS011;9760;50.944;5.304;2023-03-30T07:17:14;8.50;;;1.80;;
19251;SDS011;9760;50.944;5.304;2023-03-30T07:19:40;9.43;;;2.10;;
19251;SDS011;9760;50.944;5.304;2023-03-30T07:22:05;7.33;;;1.87;;
19251;SDS011;9760;50.944;5.304;2023-03-30T07:24:32;8.67;;;2.07;;
19251;SDS011;9760;50.944;5.304;2023-03-30T07:26:57;8.33;;;1.83;;
19251;SDS011;9760;50.944;5.304;2023-03-30T07:29:24;10.40;;;2.20;;
19251;SDS011;9760;50.944;5.304;2023-03-30T07:31:51;4.83;;;1.77;;
19251;SDS011;9760;50.944;5.304;2023-03-30T07:34:16;8.77;;;1.97;;
19251;SDS011;9760;50.944;5.304;2023-03-30T07:36:42;10.90;;;2.20;;
19251;SDS011;9760;50.944;5.304;2023-03-30T07:39:08;7.70;;;2.30;;
19251;SDS011;9760;50.944;5.304;2023-03-30T07:41:34;10.53;;;2.20;;
19251;SDS011;9760;50.944;5.304;2023-03-30T07:44:00;8.13;;;1.97;;
19251;SDS011;9760;50.944;5.304;2023-03-30T07:46:26;9.93;;;2.30;;
19251;SDS011;9760;50.944;5.304;2023-03-30T07:48:51;11.63;;;2.10;;
19251;SDS011;9760;50.944;5.304;2023-03-30T07:51:17;14.47;;;2.97;;
19251;SDS011;9760;50.944;5.304;2023-03-30T07:53:45;14.93;;;2.20;;
19251;SDS011;9760;50.944;5.304;2023-03-30T07:56:12;14.53;;;2.57;;
19251;SDS011;9760;50.944;5.304;2023-03-30T07:58:37;11.87;;;2.20;;
19251;SDS011;9760;50.944;5.304;2023-03-30T08:01:04;7.00;;;1.70;;
19251;SDS011;9760;50.944;5.304;2023-03-30T08:03:30;13.90;;;2.33;;
19251;SDS011;9760;50.944;5.304;2023-03-30T08:06:00;14.93;;;2.23;;
19251;SDS011;9760;50.944;5.304;2023-03-30T08:08:29;12.53;;;2.30;;
19251;SDS011;9760;50.944;5.304;2023-03-30T08:10:55;11.20;;;1.97;;
19251;SDS011;9760;50.944;5.304;2023-03-30T08:13:21;8.33;;;1.60;;
19251;SDS011;9760;50.944;5.304;2023-03-30T08:15:47;9.67;;;1.83;;
19251;SDS011;9760;50.944;5.304;2023-03-30T08:18:13;9.23;;;1.73;;
19251;SDS011;9760;50.944;5.304;2023-03-30T08:20:39;8.77;;;1.80;;
19251;SDS011;9760;50.944;5.304;2023-03-30T08:23:07;9.70;;;1.80;;
19251;SDS011;9760;50.944;5.304;2023-03-30T08:25:33;11.17;;;2.10;;
19251;SDS011;9760;50.944;5.304;2023-03-30T08:27:59;7.87;;;1.27;;
19251;SDS011;9760;50.944;5.304;2023-03-30T08:30:26;9.73;;;1.40;;
19251;SDS011;9760;50.944;5.304;2023-03-30T08:32:51;8.73;;;2.27;;
19251;SDS011;9760;50.944;5.304;2023-03-30T08:35:17;7.23;;;1.50;;
19251;SDS011;9760;50.944;5.304;2023-03-30T08:37:43;11.97;;;1.97;;
19251;SDS011;9760;50.944;5.304;2023-03-30T08:40:12;11.90;;;2.60;;
19251;SDS011;9760;50.944;5.304;2023-03-30T08:45:32;17.93;;;2.73;;
19251;SDS011;9760;50.944;5.304;2023-03-30T08:48:04;16.33;;;2.20;;
19251;SDS011;9760;50.944;5.304;2023-03-30T08:50:35;13.23;;;2.23;;
19251;SDS011;9760;50.944;5.304;2023-03-30T08:53:05;16.13;;;2.43;;
19251;SDS011;9760;50.944;5.304;2023-03-30T09:06:30;7.10;;;2.03;;
19251;SDS011;9760;50.944;5.304;2023-03-30T09:09:21;8.97;;;2.73;;
19251;SDS011;9760;50.944;5.304;2023-03-30T09:11:52;7.13;;;1.63;;
19251;SDS011;9760;50.944;5.304;2023-03-30T09:17:06;8.20;;;2.00;;
19251;SDS011;9760;50.944;5.304;2023-03-30T09:19:47;6.80;;;1.67;;
19251;SDS011;9760;50.944;5.304;2023-03-30T09:22:27;8.27;;;2.00;;
19251;SDS011;9760;50.944;5.304;2023-03-30T09:24:56;6.63;;;1.73;;
19251;SDS011;9760;50.944;5.304;2023-03-30T09:29:58;11.03;;;1.73;;
19251;SDS011;9760;50.944;5.304;2023-03-30T09:32:34;8.10;;;1.50;;
19251;SDS011;9760;50.944;5.304;2023-03-30T09:37:45;5.67;;;1.60;;
19251;SDS011;9760;50.944;5.304;2023-03-30T09:40:23;2.90;;;1.07;;
19251;SDS011;9760;50.944;5.304;2023-03-30T09:43:10;6.03;;;1.40;;
19251;SDS011;9760;50.944;5.304;2023-03-30T09:45:37;5.33;;;1.40;;
19251;SDS011;9760;50.944;5.304;2023-03-30T09:48:05;7.43;;;1.53;;
19251;SDS011;9760;50.944;5.304;2023-03-30T09:50:35;8.47;;;1.47;;
19251;SDS011;9760;50.944;5.304;2023-03-30T10:01:04;7.33;;;2.00;;
19251;SDS011;9760;50.944;5.304;2023-03-30T10:03:37;8.23;;;1.90;;
19251;SDS011;9760;50.944;5.304;2023-03-30T10:06:04;8.30;;;2.10;;
19251;SDS011;9760;50.944;5.304;2023-03-30T10:08:31;10.60;;;2.30;;
19251;SDS011;9760;50.944;5.304;2023-03-30T10:11:04;10.00;;;1.73;;
19251;SDS011;9760;50.944;5.304;2023-03-30T10:13:40;10.50;;;2.23;;
19251;SDS011;9760;50.944;5.304;2023-03-30T10:16:09;9.17;;;2.67;;
19251;SDS011;9760;50.944;5.304;2023-03-30T10:18:46;10.40;;;2.13;;
19251;SDS011;9760;50.944;5.304;2023-03-30T10:21:18;16.33;;;2.47;;
19251;SDS011;9760;50.944;5.304;2023-03-30T10:24:02;14.17;;;2.93;;
19251;SDS011;9760;50.944;5.304;2023-03-30T10:26:28;12.50;;;2.50;;
19251;SDS011;9760;50.944;5.304;2023-03-30T10:31:35;9.87;;;2.40;;
19251;SDS011;9760;50.944;5.304;2023-03-30T10:34:03;10.97;;;2.63;;
19251;SDS011;9760;50.944;5.304;2023-03-30T10:36:39;14.80;;;2.10;;
19251;SDS011;9760;50.944;5.304;2023-03-30T10:41:37;11.27;;;1.93;;
19251;SDS011;9760;50.944;5.304;2023-03-30T10:44:30;11.27;;;1.67;;
19251;SDS011;9760;50.944;5.304;2023-03-30T10:47:08;6.80;;;1.73;;
19251;SDS011;9760;50.944;5.304;2023-03-30T10:52:24;6.23;;;1.73;;
19251;SDS011;9760;50.944;5.304;2023-03-30T10:55:05;12.57;;;2.07;;
19251;SDS011;9760;50.944;5.304;2023-03-30T11:00:40;10.20;;;2.00;;
19251;SDS011;9760;50.944;5.304;2023-03-30T11:03:43;14.97;;;2.73;;
19251;SDS011;9760;50.944;5.304;2023-03-30T11:06:15;15.90;;;2.60;;
19251;SDS011;9760;50.944;5.304;2023-03-30T11:08:46;10.83;;;2.80;;
19251;SDS011;9760;50.944;5.304;2023-03-30T11:11:21;10.60;;;1.70;;
19251;SDS011;9760;50.944;5.304;2023-03-30T11:13:53;5.37;;;1.53;;
19251;SDS011;9760;50.944;5.304;2023-03-30T11:16:41;7.20;;;1.37;;
19251;SDS011;9760;50.944;5.304;2023-03-30T11:19:16;7.47;;;1.63;;
19251;SDS011;9760;50.944;5.304;2023-03-30T11:22:15;7.67;;;1.40;;
19251;SDS011;9760;50.944;5.304;2023-03-30T11:24:43;7.67;;;1.53;;
19251;SDS011;9760;50.944;5.304;2023-03-30T11:27:16;6.87;;;1.47;;
19251;SDS011;9760;50.944;5.304;2023-03-30T11:29:50;5.03;;;1.40;;
19251;SDS011;9760;50.944;5.304;2023-03-30T11:37:58;4.93;;;1.17;;
19251;SDS011;9760;50.944;5.304;2023-03-30T11:40:42;10.73;;;1.60;;
19251;SDS011;9760;50.944;5.304;2023-03-30T11:43:15;10.93;;;1.60;;
19251;SDS011;9760;50.944;5.304;2023-03-30T12:10:38;8.93;;;1.63;;
19251;SDS011;9760;50.944;5.304;2023-03-30T12:13:14;23.80;;;3.00;;
19251;SDS011;9760;50.944;5.304;2023-03-30T12:31:18;19.37;;;3.93;;
19251;SDS011;9760;50.944;5.304;2023-03-30T12:33:46;21.17;;;2.77;;
19251;SDS011;9760;50.944;5.304;2023-03-30T12:38:50;17.13;;;2.67;;
19251;SDS011;9760;50.944;5.304;2023-03-30T12:41:26;15.47;;;2.40;;
19251;SDS011;9760;50.944;5.304;2023-03-30T12:47:03;16.80;;;2.67;;
19251;SDS011;9760;50.944;5.304;2023-03-30T12:49:55;9.80;;;2.00;;
19251;SDS011;9760;50.944;5.304;2023-03-30T12:55:10;12.43;;;2.83;;
19251;SDS011;9760;50.944;5.304;2023-03-30T13:00:46;14.10;;;2.20;;
19251;SDS011;9760;50.944;5.304;2023-03-30T13:09:32;13.43;;;2.60;;
19251;SDS011;9760;50.944;5.304;2023-03-30T13:29:53;19.20;;;2.50;;
19251;SDS011;9760;50.944;5.304;2023-03-30T13:40:23;10.10;;;1.90;;
19251;SDS011;9760;50.944;5.304;2023-03-30T13:45:55;16.53;;;2.03;;
19251;SDS011;9760;50.944;5.304;2023-03-30T13:51:22;17.47;;;2.27;;
19251;SDS011;9760;50.944;5.304;2023-03-30T13:54:01;15.17;;;2.40;;
19251;SDS011;9760;50.944;5.304;2023-03-30T13:56:31;10.67;;;2.93;;
19251;SDS011;9760;50.944;5.304;2023-03-30T13:59:10;16.27;;;2.67;;
19251;SDS011;9760;50.944;5.304;2023-03-30T14:01:43;8.23;;;2.27;;
19251;SDS011;9760;50.944;5.304;2023-03-30T14:04:13;13.23;;;2.20;;
19251;SDS011;9760;50.944;5.304;2023-03-30T14:06:41;12.90;;;2.60;;
19251;SDS011;9760;50.944;5.304;2023-03-30T14:09:10;11.23;;;2.33;;
19251;SDS011;9760;50.944;5.304;2023-03-30T14:14:30;13.43;;;2.10;;
19251;SDS011;9760;50.944;5.304;2023-03-30T14:22:45;13.17;;;2.73;;
19251;SDS011;9760;50.944;5.304;2023-03-30T14:25:23;16.10;;;2.93;;
19251;SDS011;9760;50.944;5.304;2023-03-30T14:27:51;16.23;;;2.10;;
19251;SDS011;9760;50.944;5.304;2023-03-30T14:30:21;17.60;;;2.57;;
19251;SDS011;9760;50.944;5.304;2023-03-30T14:33:09;15.87;;;2.27;;
19251;SDS011;9760;50.944;5.304;2023-03-30T14:35:43;12.53;;;2.03;;
19251;SDS011;9760;50.944;5.304;2023-03-30T14:38:24;17.03;;;2.43;;
19251;SDS011;9760;50.944;5.304;2023-03-30T14:40:54;14.67;;;2.57;;
19251;SDS011;9760;50.944;5.304;2023-03-30T14:43:24;15.77;;;2.23;;
19251;SDS011;9760;50.944;5.304;2023-03-30T14:45:53;12.50;;;2.20;;
19251;SDS011;9760;50.944;5.304;2023-03-30T14:48:22;11.33;;;2.10;;
19251;SDS011;9760;50.944;5.304;2023-03-30T14:51:06;12.77;;;2.23;;
19251;SDS011;9760;50.944;5.304;2023-03-30T14:53:49;9.43;;;1.80;;
19251;SDS011;9760;50.944;5.304;2023-03-30T14:56:16;11.07;;;1.70;;
19251;SDS011;9760;50.944;5.304;2023-03-30T14:58:42;10.60;;;1.57;;
19251;SDS011;9760;50.944;5.304;2023-03-30T15:01:09;16.00;;;2.30;;
19251;SDS011;9760;50.944;5.304;2023-03-30T15:03:40;9.50;;;1.20;;
19251;SDS011;9760;50.944;5.304;2023-03-30T15:06:07;14.30;;;1.70;;
19251;SDS011;9760;50.944;5.304;2023-03-30T15:08:39;4.93;;;1.50;;
19251;SDS011;9760;50.944;5.304;2023-03-30T15:11:12;8.00;;;1.50;;
19251;SDS011;9760;50.944;5.304;2023-03-30T15:13:45;6.77;;;1.33;;
19251;SDS011;9760;50.944;5.304;2023-03-30T15:16:22;7.43;;;1.30;;
19251;SDS011;9760;50.944;5.304;2023-03-30T15:18:52;4.60;;;0.97;;
19251;SDS011;9760;50.944;5.304;2023-03-30T15:21:24;5.07;;;0.80;;
19251;SDS011;9760;50.944;5.304;2023-03-30T15:23:53;2.23;;;0.73;;
19251;SDS011;9760;50.944;5.304;2023-03-30T15:26:18;7.13;;;1.10;;
19251;SDS011;9760;50.944;5.304;2023-03-30T15:28:49;7.70;;;1.50;;
19251;SDS011;9760;50.944;5.304;2023-03-30T15:31:17;6.23;;;1.20;;
19251;SDS011;9760;50.944;5.304;2023-03-30T15:33:45;8.83;;;1.30;;
19251;SDS011;9760;50.944;5.304;2023-03-30T15:36:18;6.37;;;1.37;;
19251;SDS011;9760;50.944;5.304;2023-03-30T15:41:19;7.40;;;1.90;;
19251;SDS011;9760;50.944;5.304;2023-03-30T15:44:31;5.87;;;1.50;;
19251;SDS011;9760;50.944;5.304;2023-03-30T15:46:37;10.23;;;1.47;;
19251;SDS011;9760;50.944;5.304;2023-03-30T15:49:04;10.90;;;1.50;;
19251;SDS011;9760;50.944;5.304;2023-03-30T15:51:37;4.67;;;1.43;;
19251;SDS011;9760;50.944;5.304;2023-03-30T15:54:10;7.70;;;1.77;;
19251;SDS011;9760;50.944;5.304;2023-03-30T15:56:45;9.63;;;1.77;;
19251;SDS011;9760;50.944;5.304;2023-03-30T15:59:18;8.07;;;1.77;;
19251;SDS011;9760;50.944;5.304;2023-03-30T16:04:19;8.67;;;1.63;;
19251;SDS011;9760;50.944;5.304;2023-03-30T16:06:46;3.70;;;1.20;;
19251;SDS011;9760;50.944;5.304;2023-03-30T16:09:12;15.17;;;2.07;;
19251;SDS011;9760;50.944;5.304;2023-03-30T16:11:38;5.77;;;2.00;;
19251;SDS011;9760;50.944;5.304;2023-03-30T16:14:04;8.60;;;1.60;;
19251;SDS011;9760;50.944;5.304;2023-03-30T16:16:35;8.43;;;2.40;;
19251;SDS011;9760;50.944;5.304;2023-03-30T16:19:01;7.80;;;2.20;;
19251;SDS011;9760;50.944;5.304;2023-03-30T16:21:26;9.40;;;2.30;;
19251;SDS011;9760;50.944;5.304;2023-03-30T16:23:52;9.60;;;1.80;;
19251;SDS011;9760;50.944;5.304;2023-03-30T16:26:18;11.40;;;1.57;;
19251;SDS011;9760;50.944;5.304;2023-03-30T16:28:44;10.97;;;1.77;;
19251;SDS011;9760;50.944;5.304;2023-03-30T16:31:11;10.13;;;1.93;;
19251;SDS011;9760;50.944;5.304;2023-03-30T16:33:40;11.30;;;2.30;;
19251;SDS011;9760;50.944;5.304;2023-03-30T16:36:07;11.27;;;1.90;;
19251;SDS011;9760;50.944;5.304;2023-03-30T16:38:37;8.43;;;2.03;;
19251;SDS011;9760;50.944;5.304;2023-03-30T16:41:03;14.40;;;2.17;;
19251;SDS011;9760;50.944;5.304;2023-03-30T16:43:30;11.50;;;1.90;;
19251;SDS011;9760;50.944;5.304;2023-03-30T16:45:55;7.63;;;1.93;;
19251;SDS011;9760;50.944;5.304;2023-03-30T16:48:21;8.40;;;1.90;;
19251;SDS011;9760;50.944;5.304;2023-03-30T16:50:49;12.10;;;2.43;;
19251;SDS011;9760;50.944;5.304;2023-03-30T16:53:16;10.43;;;2.30;;
19251;SDS011;9760;50.944;5.304;2023-03-30T16:55:42;12.30;;;2.57;;
19251;SDS011;9760;50.944;5.304;2023-03-30T16:58:10;8.60;;;1.67;;
19251;SDS011;9760;50.944;5.304;2023-03-30T17:00:45;9.80;;;1.90;;
19251;SDS011;9760;50.944;5.304;2023-03-30T17:03:12;10.57;;;2.10;;
19251;SDS011;9760;50.944;5.304;2023-03-30T17:05:38;9.57;;;2.33;;
19251;SDS011;9760;50.944;5.304;2023-03-30T17:08:26;10.03;;;1.97;;
19251;SDS011;9760;50.944;5.304;2023-03-30T17:10:52;8.60;;;1.40;;
19251;SDS011;9760;50.944;5.304;2023-03-30T17:13:20;7.67;;;2.20;;
19251;SDS011;9760;50.944;5.304;2023-03-30T17:15:48;9.57;;;1.70;;
19251;SDS011;9760;50.944;5.304;2023-03-30T17:18:14;7.03;;;1.53;;
19251;SDS011;9760;50.944;5.304;2023-03-30T17:20:48;14.07;;;1.67;;
19251;SDS011;9760;50.944;5.304;2023-03-30T17:23:16;6.50;;;1.20;;
19251;SDS011;9760;50.944;5.304;2023-03-30T17:25:43;7.73;;;1.37;;
19251;SDS011;9760;50.944;5.304;2023-03-30T17:28:09;3.77;;;1.30;;
19251;SDS011;9760;50.944;5.304;2023-03-30T17:30:42;8.43;;;1.60;;
19251;SDS011;9760;50.944;5.304;2023-03-30T17:33:07;7.73;;;1.57;;
19251;SDS011;9760;50.944;5.304;2023-03-30T17:35:35;5.40;;;1.10;;
19251;SDS011;9760;50.944;5.304;2023-03-30T17:38:02;3.20;;;1.10;;
19251;SDS011;9760;50.944;5.304;2023-03-30T17:40:29;5.57;;;1.47;;
19251;SDS011;9760;50.944;5.304;2023-03-30T17:42:56;6.60;;;1.40;;
19251;SDS011;9760;50.944;5.304;2023-03-30T17:45:23;7.00;;;1.70;;
19251;SDS011;9760;50.944;5.304;2023-03-30T17:47:50;3.67;;;1.10;;
19251;SDS011;9760;50.944;5.304;2023-03-30T17:50:26;5.93;;;1.30;;
19251;SDS011;9760;50.944;5.304;2023-03-30T17:52:54;8.20;;;1.53;;
19251;SDS011;9760;50.944;5.304;2023-03-30T17:55:22;5.47;;;1.83;;
19251;SDS011;9760;50.944;5.304;2023-03-30T17:57:50;4.93;;;1.37;;
19251;SDS011;9760;50.944;5.304;2023-03-30T18:02:45;10.13;;;1.57;;
19251;SDS011;9760;50.944;5.304;2023-03-30T18:05:11;7.33;;;1.57;;
19251;SDS011;9760;50.944;5.304;2023-03-30T18:07:38;12.10;;;2.37;;
19251;SDS011;9760;50.944;5.304;2023-03-30T18:10:18;5.43;;;2.00;;
19251;SDS011;9760;50.944;5.304;2023-03-30T18:12:52;6.50;;;1.40;;
19251;SDS011;9760;50.944;5.304;2023-03-30T18:15:25;8.73;;;1.57;;
19251;SDS011;9760;50.944;5.304;2023-03-30T18:17:52;6.17;;;1.40;;
19251;SDS011;9760;50.944;5.304;2023-03-30T18:22:53;8.33;;;1.87;;
19251;SDS011;9760;50.944;5.304;2023-03-30T18:25:19;3.93;;;1.43;;
19251;SDS011;9760;50.944;5.304;2023-03-30T18:27:45;11.43;;;1.70;;
19251;SDS011;9760;50.944;5.304;2023-03-30T18:30:19;6.27;;;1.50;;
19251;SDS011;9760;50.944;5.304;2023-03-30T18:32:51;8.33;;;1.60;;
19251;SDS011;9760;50.944;5.304;2023-03-30T18:35:17;8.43;;;1.43;;